Time;durP1;ratioP1;P1;durP2;ratioP2;P2;SDS_P1;SDS_P2;PMS_P1;PMS_P2;Temp;Humidity;BMP_temperature;BMP_pressure;BME280_temperature;BME280_humidity;BME280_pressure;Samples;Min_cycle;Max_cycle;Signal;HPM_P1;HPM_P2
2021/10/06 00:01:55;;;;;;;3.03;1.43;;;12.10;99.90;;;;;;5051357;28;20428;-66
2021/10/06 00:04:24;;;;;;;1.73;1.17;;;12.00;99.90;;;;;;5050960;28;20823;-67
2021/10/06 00:06:52;;;;;;;1.83;0.97;;;12.10;99.90;;;;;;5050905;28;20402;-67
2021/10/06 00:09:21;;;;;;;1.33;1.07;;;12.10;99.90;;;;;;5051144;28;20473;-66
2021/10/06 00:11:50;;;;;;;1.63;1.40;;;12.10;99.90;;;;;;5051088;28;20864;-66
2021/10/06 00:14:23;;;;;;;1.17;0.60;;;12.20;99.90;;;;;;5050935;28;20427;-66
2021/10/06 00:16:52;;;;;;;1.70;1.10;;;12.20;99.90;;;;;;5050641;28;20909;-67
2021/10/06 00:19:22;;;;;;;1.70;1.60;;;12.20;99.90;;;;;;5050865;28;20423;-67
2021/10/06 00:21:51;;;;;;;1.70;1.60;;;12.30;99.90;;;;;;5051327;28;20454;-67
2021/10/06 00:24:20;;;;;;;1.30;1.07;;;12.30;99.90;;;;;;5051071;28;20654;-68
2021/10/06 00:26:48;;;;;;;1.00;0.60;;;12.30;99.90;;;;;;5033243;28;20432;-67
2021/10/06 00:29:16;;;;;;;1.27;1.17;;;12.30;99.90;;;;;;5051163;28;20427;-67
2021/10/06 00:31:45;;;;;;;1.33;0.77;;;12.40;99.90;;;;;;5050512;28;20944;-68
2021/10/06 00:34:13;;;;;;;1.40;0.90;;;12.30;99.90;;;;;;5065889;22;20938;-66
2021/10/06 00:36:41;;;;;;;1.20;0.87;;;12.20;99.90;;;;;;5050638;28;20934;-66
2021/10/06 00:39:09;;;;;;;1.20;1.10;;;12.10;99.90;;;;;;5051077;28;20433;-66
2021/10/06 00:41:39;;;;;;;0.90;0.70;;;12.00;99.90;;;;;;5051018;28;20454;-66
2021/10/06 00:44:13;;;;;;;0.90;0.60;;;12.00;99.90;;;;;;5051048;28;20415;-66
2021/10/06 00:46:42;;;;;;;1.30;0.80;;;11.90;99.90;;;;;;5050723;28;20637;-66
2021/10/06 00:49:10;;;;;;;2.40;1.33;;;11.90;99.90;;;;;;5051399;28;20502;-67
2021/10/06 00:51:40;;;;;;;1.93;1.23;;;11.80;99.90;;;;;;5050888;28;20947;-66
2021/10/06 00:54:08;;;;;;;0.90;0.80;;;11.70;99.90;;;;;;5050860;28;20454;-66
2021/10/06 00:56:36;;;;;;;1.43;1.20;;;11.60;99.90;;;;;;5050649;28;20784;-66
2021/10/06 00:59:06;;;;;;;0.93;0.70;;;11.60;99.90;;;;;;5050717;28;20458;-67
2021/10/06 01:01:34;;;;;;;1.00;0.70;;;11.50;99.90;;;;;;5050776;28;20447;-67
2021/10/06 01:04:04;;;;;;;1.40;0.83;;;11.50;99.90;;;;;;5050794;28;20423;-68
2021/10/06 01:06:33;;;;;;;0.90;0.60;;;11.40;99.90;;;;;;5050355;28;20462;-66
2021/10/06 01:09:01;;;;;;;1.00;0.77;;;11.40;99.90;;;;;;5051091;28;20435;-67
2021/10/06 01:11:30;;;;;;;1.37;1.27;;;11.50;99.90;;;;;;5051022;28;20451;-66
2021/10/06 01:13:59;;;;;;;1.10;0.67;;;11.50;99.90;;;;;;5051098;28;20517;-66
2021/10/06 01:16:29;;;;;;;1.00;0.80;;;11.40;99.90;;;;;;5050467;28;20462;-67
2021/10/06 01:18:58;;;;;;;0.80;0.40;;;11.30;99.90;;;;;;5051271;28;20931;-67
2021/10/06 01:21:27;;;;;;;2.50;1.43;;;11.30;99.90;;;;;;5050359;28;20418;-67
2021/10/06 01:23:55;;;;;;;3.10;1.20;;;11.30;99.90;;;;;;5050679;28;20419;-68
2021/10/06 01:26:24;;;;;;;1.00;0.70;;;11.30;99.90;;;;;;5050305;28;20493;-66
2021/10/06 01:28:54;;;;;;;1.20;0.73;;;11.40;99.90;;;;;;5050813;28;20449;-65
2021/10/06 01:31:27;;;;;;;1.00;0.80;;;11.50;99.90;;;;;;5050391;28;20456;-66
2021/10/06 01:33:55;;;;;;;3.37;1.03;;;11.60;99.90;;;;;;5050426;28;20442;-66
2021/10/06 01:36:24;;;;;;;2.13;1.93;;;11.70;99.90;;;;;;5050128;28;20426;-65
2021/10/06 01:38:53;;;;;;;2.20;1.73;;;11.70;99.90;;;;;;5050807;28;20791;-66
2021/10/06 01:41:25;;;;;;;1.60;1.33;;;11.80;99.90;;;;;;5050925;28;20517;-65
2021/10/06 01:43:53;;;;;;;1.73;1.50;;;11.80;99.90;;;;;;5052183;28;20415;-66
2021/10/06 01:46:21;;;;;;;1.13;1.03;;;11.90;99.90;;;;;;5053423;28;20493;-67
2021/10/06 01:49:03;;;;;;;1.30;0.73;;;11.90;99.90;;;;;;4973244;28;20505;-67
2021/10/06 01:51:32;;;;;;;1.07;0.70;;;11.80;99.90;;;;;;4972909;28;20543;-67
2021/10/06 01:54:03;;;;;;;1.00;0.80;;;11.90;99.90;;;;;;4973372;28;20430;-66
2021/10/06 01:56:31;;;;;;;1.30;0.90;;;11.90;99.90;;;;;;4972833;28;20431;-67
2021/10/06 01:59:00;;;;;;;2.03;1.07;;;12.10;99.90;;;;;;4972385;28;20481;-66
2021/10/06 02:01:28;;;;;;;1.30;1.20;;;12.10;99.90;;;;;;4972248;28;20476;-66
2021/10/06 02:03:56;;;;;;;1.43;1.33;;;12.20;99.90;;;;;;4972630;28;20431;-66
2021/10/06 02:06:25;;;;;;;1.63;1.53;;;12.20;99.90;;;;;;4972476;28;20465;-66
2021/10/06 02:08:53;;;;;;;1.90;1.13;;;12.30;99.90;;;;;;4972620;28;20458;-66
2021/10/06 02:11:23;;;;;;;1.40;0.83;;;12.30;99.90;;;;;;4972361;28;20456;-66
2021/10/06 02:13:51;;;;;;;1.53;1.43;;;12.30;99.90;;;;;;4972603;28;20405;-66
2021/10/06 02:16:19;;;;;;;1.63;1.13;;;12.30;99.90;;;;;;4972614;28;20423;-67
2021/10/06 02:18:47;;;;;;;1.53;1.23;;;12.30;99.90;;;;;;4972562;28;20427;-65
2021/10/06 02:21:32;;;;;;;1.57;1.47;;;12.40;99.90;;;;;;5053212;28;20458;-65
2021/10/06 02:24:00;;;;;;;1.20;0.60;;;12.30;99.90;;;;;;5053828;28;20458;-65
2021/10/06 02:26:30;;;;;;;0.90;0.73;;;12.40;99.90;;;;;;5053031;28;20467;-67
2021/10/06 02:28:59;;;;;;;1.40;1.00;;;12.40;99.90;;;;;;5053292;28;20420;-65
2021/10/06 02:31:27;;;;;;;0.80;0.50;;;12.40;99.90;;;;;;5053120;28;20455;-66
2021/10/06 02:33:55;;;;;;;0.80;0.43;;;12.50;99.90;;;;;;5053147;28;20413;-66
2021/10/06 02:36:23;;;;;;;1.00;0.60;;;12.50;99.90;;;;;;5052857;28;20469;-66
2021/10/06 02:38:51;;;;;;;0.90;0.70;;;12.50;99.90;;;;;;5053277;28;20379;-65
2021/10/06 02:41:19;;;;;;;2.70;2.30;;;12.50;99.90;;;;;;5053144;28;20446;-65
2021/10/06 02:43:49;;;;;;;2.30;0.70;;;12.50;99.90;;;;;;5053534;28;20409;-65
2021/10/06 02:46:17;;;;;;;1.67;1.17;;;12.50;99.90;;;;;;5052535;28;20438;-67
2021/10/06 02:48:45;;;;;;;0.90;0.60;;;12.50;99.90;;;;;;5052788;28;20494;-65
2021/10/06 02:51:13;;;;;;;0.90;0.60;;;12.40;99.90;;;;;;5052922;28;20946;-67
2021/10/06 02:53:42;;;;;;;1.37;1.27;;;12.40;99.90;;;;;;5053213;28;20723;-65
2021/10/06 02:56:10;;;;;;;1.43;1.10;;;12.40;99.90;;;;;;5051974;28;20404;-66
2021/10/06 02:58:38;;;;;;;1.93;1.33;;;12.50;99.90;;;;;;5052837;28;20424;-66
2021/10/06 03:01:07;;;;;;;0.90;0.70;;;12.60;99.90;;;;;;5052515;28;20439;-67
2021/10/06 03:03:36;;;;;;;1.10;0.97;;;12.60;99.90;;;;;;5052641;28;20427;-66
2021/10/06 03:06:04;;;;;;;3.10;1.10;;;12.50;99.90;;;;;;5052783;28;20486;-65
2021/10/06 03:08:32;;;;;;;1.37;1.27;;;12.50;99.90;;;;;;5053510;28;20830;-66
2021/10/06 03:11:01;;;;;;;2.10;1.00;;;12.50;99.90;;;;;;5052772;28;20425;-66
2021/10/06 03:13:29;;;;;;;1.13;0.70;;;12.60;99.90;;;;;;5052554;28;20419;-65
2021/10/06 03:15:58;;;;;;;1.20;0.70;;;12.60;99.90;;;;;;5052311;28;20408;-66
2021/10/06 03:18:28;;;;;;;1.00;0.90;;;12.60;99.90;;;;;;5052362;28;20477;-66
2021/10/06 03:20:56;;;;;;;1.10;0.80;;;12.60;99.90;;;;;;5052338;28;20423;-67
2021/10/06 03:23:24;;;;;;;0.90;0.73;;;12.60;99.90;;;;;;5052606;28;20806;-66
2021/10/06 03:25:52;;;;;;;0.97;0.87;;;12.60;99.90;;;;;;5052739;28;20398;-67
2021/10/06 03:28:20;;;;;;;0.90;0.70;;;12.60;99.90;;;;;;5052773;28;20426;-66
2021/10/06 03:30:49;;;;;;;1.60;1.03;;;12.60;99.90;;;;;;5052569;28;20424;-66
2021/10/06 03:33:17;;;;;;;1.80;1.47;;;12.70;99.90;;;;;;5052672;28;20424;-66
2021/10/06 03:35:46;;;;;;;1.50;1.10;;;12.70;99.90;;;;;;5052240;28;20534;-66
2021/10/06 03:38:14;;;;;;;1.47;1.13;;;12.70;99.90;;;;;;5052560;28;20401;-67
2021/10/06 03:40:42;;;;;;;1.30;1.10;;;12.70;99.90;;;;;;5052401;28;20420;-66
2021/10/06 03:43:11;;;;;;;1.87;0.80;;;12.70;99.90;;;;;;5051865;28;20473;-66
2021/10/06 03:45:39;;;;;;;0.80;0.50;;;12.70;99.90;;;;;;5051855;28;20427;-66
2021/10/06 03:48:07;;;;;;;0.90;0.50;;;12.70;99.90;;;;;;5052042;28;20872;-67
2021/10/06 03:50:35;;;;;;;2.13;1.53;;;12.70;99.90;;;;;;5051862;28;20408;-66
2021/10/06 03:53:05;;;;;;;1.03;0.93;;;12.80;99.90;;;;;;5052036;28;20401;-66
2021/10/06 03:55:33;;;;;;;2.37;1.60;;;12.80;99.90;;;;;;5051409;28;20411;-66
2021/10/06 03:58:02;;;;;;;1.57;1.43;;;12.70;99.90;;;;;;5033736;28;20425;-66
2021/10/06 04:00:31;;;;;;;2.07;0.97;;;12.80;99.90;;;;;;5051643;28;20394;-65
2021/10/06 04:02:59;;;;;;;1.10;0.70;;;12.70;99.90;;;;;;5051913;28;20791;-65
2021/10/06 04:05:28;;;;;;;1.57;1.13;;;12.60;99.90;;;;;;5051619;28;20406;-66
2021/10/06 04:07:56;;;;;;;1.23;0.80;;;12.60;99.90;;;;;;5051322;28;20459;-66
2021/10/06 04:10:26;;;;;;;1.17;0.77;;;12.50;99.90;;;;;;5051683;28;20966;-66
2021/10/06 04:12:54;;;;;;;1.13;0.60;;;12.50;99.90;;;;;;5051214;28;20418;-66
2021/10/06 04:15:22;;;;;;;1.30;0.93;;;12.50;99.90;;;;;;5051435;28;20429;-67
2021/10/06 04:17:50;;;;;;;1.00;0.60;;;12.40;99.90;;;;;;5051375;28;20586;-66
2021/10/06 04:20:19;;;;;;;0.90;0.50;;;12.40;99.90;;;;;;5051305;28;20604;-66
2021/10/06 04:22:47;;;;;;;2.90;0.93;;;12.40;99.90;;;;;;5051305;28;20443;-66
2021/10/06 04:25:15;;;;;;;1.17;0.70;;;12.40;99.90;;;;;;5051363;28;20818;-66
2021/10/06 04:27:45;;;;;;;0.90;0.60;;;12.40;99.90;;;;;;5050845;28;20467;-66
2021/10/06 04:30:13;;;;;;;0.90;0.70;;;12.30;99.90;;;;;;5051346;28;20397;-66
2021/10/06 04:32:41;;;;;;;1.07;0.83;;;12.40;99.90;;;;;;5051093;28;20858;-66
2021/10/06 04:35:10;;;;;;;1.67;0.70;;;12.50;99.90;;;;;;5050810;28;20922;-67
2021/10/06 04:37:38;;;;;;;1.30;1.20;;;12.50;99.90;;;;;;5051485;28;20822;-66
2021/10/06 04:40:09;;;;;;;0.87;0.63;;;12.50;99.90;;;;;;5051255;28;20420;-66
2021/10/06 04:42:37;;;;;;;0.80;0.60;;;12.50;99.90;;;;;;5051373;28;20443;-66
2021/10/06 04:45:07;;;;;;;1.93;0.93;;;12.50;99.90;;;;;;5051741;28;20452;-66
2021/10/06 04:47:39;;;;;;;0.90;0.70;;;12.50;99.90;;;;;;5051915;28;20455;-65
2021/10/06 04:50:08;;;;;;;1.30;0.97;;;12.50;99.90;;;;;;5052492;28;20398;-66
2021/10/06 04:52:36;;;;;;;1.00;0.60;;;12.50;99.90;;;;;;5052206;28;20443;-66
2021/10/06 04:55:06;;;;;;;1.10;0.77;;;12.50;99.90;;;;;;5052224;28;20463;-66
2021/10/06 04:57:34;;;;;;;1.00;0.80;;;12.50;99.90;;;;;;5052229;28;20494;-66
2021/10/06 05:00:02;;;;;;;2.10;1.13;;;12.50;99.90;;;;;;5051617;28;20416;-66
2021/10/06 05:02:32;;;;;;;1.17;1.07;;;12.50;99.90;;;;;;5033254;28;20501;-66
2021/10/06 05:05:00;;;;;;;1.23;0.70;;;12.50;99.90;;;;;;5051165;28;20916;-65
2021/10/06 05:07:28;;;;;;;1.17;0.80;;;12.70;99.90;;;;;;5050793;28;20429;-65
2021/10/06 05:09:56;;;;;;;2.10;1.67;;;13.20;99.90;;;;;;5050921;28;20477;-66
2021/10/06 05:12:24;;;;;;;2.53;1.30;;;13.50;99.90;;;;;;5050411;28;20426;-66
2021/10/06 05:14:52;;;;;;;1.20;1.00;;;13.50;99.90;;;;;;5050585;28;20423;-66
2021/10/06 05:17:20;;;;;;;1.97;1.63;;;13.50;99.90;;;;;;5044287;28;20442;-67
2021/10/06 05:19:50;;;;;;;0.90;0.50;;;13.50;99.90;;;;;;5046940;28;20497;-66
2021/10/06 05:22:18;;;;;;;1.17;0.70;;;13.50;99.90;;;;;;5047085;28;20496;-67
2021/10/06 05:24:46;;;;;;;3.13;1.67;;;13.50;99.90;;;;;;5043654;28;20811;-66
2021/10/06 05:27:14;;;;;;;1.00;0.60;;;13.50;99.90;;;;;;5041587;28;20921;-66
2021/10/06 05:29:42;;;;;;;1.37;0.93;;;13.40;99.90;;;;;;5041204;28;20486;-65
2021/10/06 05:32:11;;;;;;;1.03;0.73;;;13.30;99.90;;;;;;5048390;28;20432;-66
2021/10/06 05:34:39;;;;;;;1.90;1.80;;;13.20;99.90;;;;;;5053904;28;20496;-66
2021/10/06 05:37:08;;;;;;;0.97;0.63;;;13.30;99.90;;;;;;5053933;28;20398;-65
2021/10/06 05:39:36;;;;;;;1.40;1.07;;;13.20;99.90;;;;;;5054221;28;20847;-65
2021/10/06 05:42:04;;;;;;;1.20;0.60;;;13.10;99.90;;;;;;5054153;28;20446;-66
2021/10/06 05:44:33;;;;;;;1.00;0.80;;;12.90;99.90;;;;;;5054563;28;20501;-67
2021/10/06 05:47:01;;;;;;;0.90;0.70;;;13.00;99.90;;;;;;5048301;28;20442;-67
2021/10/06 05:49:29;;;;;;;1.33;0.97;;;12.90;99.90;;;;;;5023255;28;21042;-67
2021/10/06 05:51:58;;;;;;;1.83;1.47;;;12.90;99.90;;;;;;5050723;28;20420;-67
2021/10/06 05:54:28;;;;;;;1.33;1.03;;;12.80;99.90;;;;;;5052490;28;20430;-67
2021/10/06 05:56:56;;;;;;;1.07;0.70;;;12.70;99.90;;;;;;5054075;28;20477;-67
2021/10/06 05:59:24;;;;;;;1.50;1.00;;;12.80;99.90;;;;;;5054151;28;20845;-65
2021/10/06 06:01:52;;;;;;;1.90;1.80;;;12.90;99.90;;;;;;5031509;28;20430;-66
2021/10/06 06:04:20;;;;;;;0.90;0.80;;;12.90;99.90;;;;;;5051562;28;20439;-66
2021/10/06 06:06:48;;;;;;;1.37;0.90;;;12.90;99.90;;;;;;5053422;28;20892;-67
2021/10/06 06:09:20;;;;;;;1.20;0.70;;;13.10;99.90;;;;;;5053711;28;20462;-67
2021/10/06 06:11:50;;;;;;;1.63;1.00;;;13.10;99.90;;;;;;5053364;28;20958;-66
2021/10/06 06:14:19;;;;;;;1.27;1.10;;;13.20;99.90;;;;;;5054012;28;20804;-66
2021/10/06 06:16:47;;;;;;;1.13;1.03;;;13.40;99.90;;;;;;5053329;28;20415;-67
2021/10/06 06:19:15;;;;;;;1.20;0.93;;;13.40;99.90;;;;;;5053939;28;20506;-65
2021/10/06 06:21:44;;;;;;;1.50;0.77;;;13.40;99.90;;;;;;5054699;28;20426;-66
2021/10/06 06:24:12;;;;;;;0.90;0.60;;;13.20;99.90;;;;;;5055166;28;20415;-66
2021/10/06 06:26:40;;;;;;;1.20;0.80;;;13.10;99.90;;;;;;5045238;28;20481;-66
2021/10/06 06:29:09;;;;;;;2.17;2.07;;;13.10;99.90;;;;;;5034898;28;20454;-66
2021/10/06 06:31:37;;;;;;;2.23;1.30;;;13.10;99.90;;;;;;5033298;28;20419;-66
2021/10/06 06:34:05;;;;;;;1.13;0.90;;;13.10;99.90;;;;;;5033693;28;20414;-66
2021/10/06 06:36:34;;;;;;;1.73;1.20;;;13.20;99.90;;;;;;5038648;28;20434;-66
2021/10/06 06:39:02;;;;;;;0.97;0.63;;;13.30;99.90;;;;;;5053312;28;20497;-67
2021/10/06 06:41:31;;;;;;;1.00;0.90;;;13.20;99.90;;;;;;5053302;28;20779;-67
2021/10/06 06:44:00;;;;;;;2.23;2.13;;;13.20;99.90;;;;;;5053023;28;20481;-67
2021/10/06 06:46:30;;;;;;;0.90;0.60;;;13.40;99.90;;;;;;5052577;28;20479;-66
2021/10/06 06:48:58;;;;;;;0.93;0.50;;;13.40;99.90;;;;;;5052736;28;20479;-67
2021/10/06 06:51:26;;;;;;;1.47;0.70;;;13.50;99.90;;;;;;5052732;28;20443;-67
2021/10/06 06:53:55;;;;;;;1.13;0.77;;;13.40;99.90;;;;;;5052495;28;20435;-67
2021/10/06 06:56:24;;;;;;;0.90;0.70;;;13.40;99.90;;;;;;5052497;28;20481;-67
2021/10/06 06:58:52;;;;;;;1.13;0.80;;;13.40;99.90;;;;;;5052525;28;20406;-65
2021/10/06 07:01:20;;;;;;;1.20;0.90;;;13.40;99.90;;;;;;5052828;28;20483;-67
2021/10/06 07:03:50;;;;;;;3.00;1.20;;;13.40;99.90;;;;;;5053131;28;20378;-67
2021/10/06 07:06:18;;;;;;;1.57;1.47;;;13.50;99.90;;;;;;5052698;28;20427;-66
2021/10/06 07:08:48;;;;;;;1.03;0.67;;;13.40;99.90;;;;;;5052863;28;20429;-67
2021/10/06 07:11:16;;;;;;;1.00;0.50;;;13.50;99.90;;;;;;5052303;28;20449;-66
2021/10/06 07:13:44;;;;;;;1.90;1.73;;;13.60;99.90;;;;;;5052526;28;20399;-68
2021/10/06 07:16:12;;;;;;;1.20;0.90;;;13.70;99.90;;;;;;5052151;28;20430;-66
2021/10/06 07:18:41;;;;;;;1.87;1.10;;;13.70;99.90;;;;;;5052872;28;20439;-66
2021/10/06 07:21:11;;;;;;;1.93;1.33;;;13.70;99.90;;;;;;5052491;28;20428;-67
2021/10/06 07:23:39;;;;;;;1.50;0.90;;;13.80;99.90;;;;;;5023805;28;20437;-67
2021/10/06 07:26:07;;;;;;;0.87;0.50;;;13.90;99.90;;;;;;5032317;28;20383;-66
2021/10/06 07:28:35;;;;;;;1.80;1.27;;;13.90;99.90;;;;;;5032229;28;20996;-67
2021/10/06 07:31:04;;;;;;;1.00;0.63;;;13.90;99.90;;;;;;5031684;28;20410;-67
2021/10/06 07:33:32;;;;;;;0.90;0.70;;;14.00;99.90;;;;;;5031599;28;20425;-67
2021/10/06 07:36:00;;;;;;;1.20;0.80;;;14.10;99.90;;;;;;5031560;28;20447;-66
2021/10/06 07:38:29;;;;;;;1.10;0.70;;;14.20;99.90;;;;;;5031733;28;20436;-67
2021/10/06 07:40:57;;;;;;;1.23;0.93;;;14.30;99.90;;;;;;5031844;28;20782;-66
2021/10/06 07:43:25;;;;;;;1.20;0.70;;;14.40;99.90;;;;;;5032154;28;20449;-66
2021/10/06 07:45:57;;;;;;;1.83;1.47;;;14.40;99.90;;;;;;5047394;28;20413;-66
2021/10/06 07:48:29;;;;;;;2.17;1.57;;;14.20;99.90;;;;;;5051574;28;20574;-67
2021/10/06 07:50:58;;;;;;;1.33;0.80;;;14.20;99.90;;;;;;5051107;28;20438;-66
2021/10/06 07:53:26;;;;;;;1.20;0.60;;;14.30;99.90;;;;;;5051381;28;20429;-67
2021/10/06 07:55:55;;;;;;;1.07;0.80;;;14.30;99.90;;;;;;5051118;28;20416;-67
2021/10/06 07:58:24;;;;;;;0.90;0.70;;;14.40;99.90;;;;;;5051189;28;20931;-67
2021/10/06 08:00:52;;;;;;;1.20;0.80;;;14.50;99.90;;;;;;5051210;28;20996;-67
2021/10/06 08:03:20;;;;;;;0.97;0.70;;;14.60;99.90;;;;;;5051006;28;20427;-66
2021/10/06 08:05:49;;;;;;;0.87;0.53;;;14.60;99.90;;;;;;5051015;28;20399;-66
2021/10/06 08:08:17;;;;;;;1.57;0.70;;;14.70;99.90;;;;;;5051167;28;20447;-67
2021/10/06 08:10:45;;;;;;;2.30;1.20;;;14.70;99.90;;;;;;5050968;28;20561;-66
2021/10/06 08:13:14;;;;;;;0.80;0.50;;;14.80;99.90;;;;;;5050997;28;20793;-67
2021/10/06 08:15:42;;;;;;;1.40;0.73;;;14.90;99.90;;;;;;5051186;28;20857;-67
2021/10/06 08:18:12;;;;;;;1.47;0.63;;;14.90;99.90;;;;;;5033581;28;20973;-67
2021/10/06 08:20:40;;;;;;;0.90;0.60;;;14.90;99.90;;;;;;5051363;28;20412;-67
2021/10/06 08:23:09;;;;;;;0.90;0.60;;;15.00;99.90;;;;;;5051224;28;20532;-65
2021/10/06 08:25:37;;;;;;;0.80;0.50;;;14.90;99.90;;;;;;5051100;28;20413;-67
2021/10/06 08:28:05;;;;;;;0.80;0.40;;;14.80;99.90;;;;;;5050779;28;20400;-67
2021/10/06 08:30:35;;;;;;;0.90;0.60;;;14.80;99.90;;;;;;5051090;28;20790;-66
2021/10/06 08:33:04;;;;;;;1.03;0.87;;;14.90;99.90;;;;;;5051088;28;20410;-67
2021/10/06 08:35:32;;;;;;;1.00;0.70;;;14.90;99.90;;;;;;5050879;28;20401;-67
2021/10/06 08:38:03;;;;;;;0.90;0.60;;;15.00;99.90;;;;;;5050722;28;20398;-66
2021/10/06 08:40:34;;;;;;;1.33;0.97;;;15.10;99.90;;;;;;5051002;28;20420;-66
2021/10/06 08:43:02;;;;;;;0.90;0.50;;;15.30;99.90;;;;;;5050975;28;20420;-67
2021/10/06 08:45:30;;;;;;;0.80;0.50;;;15.40;99.90;;;;;;5032702;28;20414;-67
2021/10/06 08:48:02;;;;;;;1.80;0.90;;;15.50;99.90;;;;;;5051284;28;20545;-68
2021/10/06 08:50:30;;;;;;;1.10;0.60;;;15.50;99.90;;;;;;5051245;28;20430;-67
2021/10/06 08:52:58;;;;;;;1.10;0.80;;;15.60;99.90;;;;;;5050650;28;20497;-67
2021/10/06 08:55:31;;;;;;;1.67;1.20;;;15.60;99.90;;;;;;5036828;28;20993;-67
2021/10/06 08:58:01;;;;;;;1.30;0.70;;;15.50;99.90;;;;;;5054815;28;20918;-68
2021/10/06 09:00:30;;;;;;;1.50;1.17;;;15.50;99.90;;;;;;5055039;28;20390;-66
2021/10/06 09:03:09;;;;;;;1.80;1.17;;;15.50;99.90;;;;;;5054963;28;20409;-66
2021/10/06 09:05:37;;;;;;;0.90;0.70;;;15.70;99.90;;;;;;5054593;28;20836;-67
2021/10/06 09:08:08;;;;;;;2.13;1.37;;;15.60;99.90;;;;;;5054533;28;20486;-66
2021/10/06 09:10:37;;;;;;;0.90;0.50;;;15.70;99.90;;;;;;5055165;28;20421;-67
2021/10/06 09:13:07;;;;;;;3.47;1.47;;;15.80;99.90;;;;;;5054586;28;20423;-67
2021/10/06 09:15:48;;;;;;;1.00;0.73;;;15.90;99.90;;;;;;5054665;28;20419;-66
2021/10/06 09:18:22;;;;;;;0.97;0.50;;;16.00;99.90;;;;;;5054542;28;20942;-69
2021/10/06 09:20:51;;;;;;;0.90;0.50;;;16.00;99.90;;;;;;5054893;28;20783;-66
2021/10/06 09:23:20;;;;;;;1.00;0.80;;;16.00;99.90;;;;;;5054680;28;20421;-67
2021/10/06 09:25:54;;;;;;;1.30;0.67;;;16.00;99.90;;;;;;5054331;28;20423;-67
2021/10/06 09:28:27;;;;;;;1.00;0.60;;;15.90;99.90;;;;;;5054731;28;20395;-66
2021/10/06 09:30:57;;;;;;;1.10;0.70;;;15.90;99.90;;;;;;5054262;28;20425;-67
2021/10/06 09:33:38;;;;;;;1.10;0.50;;;15.90;99.90;;;;;;5054094;28;20450;-66
2021/10/06 09:36:08;;;;;;;1.60;0.77;;;16.00;99.90;;;;;;5054052;28;20429;-67
2021/10/06 09:38:41;;;;;;;0.90;0.50;;;16.00;99.90;;;;;;5054471;28;20782;-66
2021/10/06 09:41:44;;;;;;;1.27;0.63;;;15.90;99.90;;;;;;5053954;28;20958;-67
2021/10/06 09:44:14;;;;;;;1.20;0.90;;;16.10;99.90;;;;;;5053735;28;20390;-66
2021/10/06 09:46:52;;;;;;;2.07;1.60;;;16.20;99.90;;;;;;5053754;28;20401;-67
2021/10/06 09:49:27;;;;;;;0.90;0.50;;;16.30;99.90;;;;;;5054098;28;20382;-67
2021/10/06 09:52:13;;;;;;;0.90;0.60;;;16.40;99.90;;;;;;5053571;28;20409;-67
2021/10/06 09:54:41;;;;;;;0.90;0.50;;;16.30;99.90;;;;;;5054696;28;20462;-66
2021/10/06 09:57:09;;;;;;;1.63;1.10;;;16.20;99.90;;;;;;5053537;28;20423;-66
2021/10/06 09:59:38;;;;;;;1.37;0.83;;;16.30;99.90;;;;;;5053911;28;20493;-67
2021/10/06 10:02:06;;;;;;;1.57;0.70;;;16.60;99.90;;;;;;5053332;28;20414;-66
2021/10/06 10:04:36;;;;;;;0.90;0.50;;;16.60;99.90;;;;;;5053242;28;20441;-66
2021/10/06 10:07:04;;;;;;;1.43;0.90;;;16.80;99.90;;;;;;5053192;28;20451;-67
2021/10/06 10:09:33;;;;;;;1.00;0.60;;;16.90;99.90;;;;;;5053399;28;20419;-67
2021/10/06 10:12:02;;;;;;;1.00;0.73;;;16.80;99.90;;;;;;5035247;28;20521;-67
2021/10/06 10:14:30;;;;;;;1.00;0.50;;;16.60;99.90;;;;;;5053222;28;20453;-67
2021/10/06 10:16:58;;;;;;;1.30;0.70;;;16.30;99.90;;;;;;5053147;28;20419;-67
2021/10/06 10:19:28;;;;;;;1.10;0.77;;;16.30;99.90;;;;;;5053204;28;20408;-67
2021/10/06 10:21:59;;;;;;;1.47;1.37;;;16.50;99.90;;;;;;5053453;28;20443;-67
2021/10/06 10:24:27;;;;;;;0.90;0.60;;;16.60;99.90;;;;;;5053483;28;20764;-66
2021/10/06 10:27:01;;;;;;;1.67;0.80;;;16.80;99.90;;;;;;5053306;28;20807;-67
2021/10/06 10:29:37;;;;;;;1.40;0.70;;;16.60;99.90;;;;;;5053621;28;20931;-66
2021/10/06 10:32:08;;;;;;;0.90;0.60;;;16.50;99.90;;;;;;5053465;28;20584;-67
2021/10/06 10:34:59;;;;;;;1.33;0.70;;;16.20;99.90;;;;;;5052945;28;20414;-66
2021/10/06 10:38:17;;;;;;;0.90;0.50;;;16.20;99.90;;;;;;5052065;28;20508;-67
2021/10/06 10:40:48;;;;;;;1.00;0.50;;;16.40;99.90;;;;;;5053486;28;20422;-66
2021/10/06 10:43:18;;;;;;;1.83;0.60;;;16.70;99.90;;;;;;5053382;28;20398;-66
2021/10/06 10:46:06;;;;;;;0.90;0.50;;;17.00;99.90;;;;;;5052904;28;20386;-65
2021/10/06 10:48:56;;;;;;;0.90;0.50;;;17.30;99.90;;;;;;5052997;28;20397;-67
2021/10/06 10:51:42;;;;;;;0.90;0.50;;;17.50;99.90;;;;;;5053225;28;20876;-67
2021/10/06 10:54:11;;;;;;;1.33;0.60;;;17.50;99.90;;;;;;5053278;28;20740;-66
2021/10/06 10:56:49;;;;;;;1.50;0.70;;;17.60;99.90;;;;;;5034989;28;20755;-67
2021/10/06 10:59:22;;;;;;;1.87;1.13;;;17.50;99.90;;;;;;5053185;28;20455;-67
2021/10/06 11:01:56;;;;;;;1.97;1.10;;;17.50;99.90;;;;;;5052937;28;20984;-67
2021/10/06 11:04:27;;;;;;;1.20;0.73;;;17.40;99.90;;;;;;5052886;28;20397;-67
2021/10/06 11:06:57;;;;;;;0.90;0.50;;;17.30;99.90;;;;;;5052610;28;20431;-67
2021/10/06 11:09:54;;;;;;;1.00;0.60;;;17.30;99.90;;;;;;5052959;28;20416;-67
2021/10/06 11:12:34;;;;;;;1.23;0.80;;;17.50;99.90;;;;;;5052646;28;20446;-66
2021/10/06 11:15:28;;;;;;;1.00;0.73;;;17.40;99.90;;;;;;5052504;28;20398;-67
2021/10/06 11:18:18;;;;;;;1.47;1.33;;;17.40;99.90;;;;;;5052096;28;20394;-67
2021/10/06 11:20:49;;;;;;;1.20;0.90;;;17.60;99.90;;;;;;5052653;28;20465;-67
2021/10/06 11:23:47;;;;;;;1.20;0.77;;;17.90;99.90;;;;;;5052735;28;20397;-67
2021/10/06 11:26:21;;;;;;;1.20;0.57;;;17.90;99.90;;;;;;5052323;28;20532;-66
2021/10/06 11:28:53;;;;;;;1.27;1.00;;;17.90;99.90;;;;;;5052613;28;20778;-67
2021/10/06 11:31:24;;;;;;;3.10;1.33;;;17.60;99.90;;;;;;5052499;28;20441;-66
2021/10/06 11:33:53;;;;;;;1.57;0.80;;;17.30;99.90;;;;;;5052234;28;20448;-66
2021/10/06 11:36:23;;;;;;;1.10;0.80;;;17.30;99.90;;;;;;5052241;28;20427;-65
2021/10/06 11:39:02;;;;;;;1.10;0.70;;;17.30;99.90;;;;;;5034548;28;20744;-66
2021/10/06 11:41:30;;;;;;;0.90;0.50;;;17.30;99.90;;;;;;5034328;28;20433;-66
2021/10/06 11:44:00;;;;;;;0.90;0.50;;;17.40;99.90;;;;;;5052329;28;20767;-66
2021/10/06 11:46:32;;;;;;;1.00;0.57;;;17.50;99.90;;;;;;5052118;28;20419;-66
2021/10/06 11:49:03;;;;;;;5.67;1.63;;;17.50;99.90;;;;;;5052296;28;20453;-66
2021/10/06 11:51:47;;;;;;;1.30;0.60;;;17.60;99.90;;;;;;5052005;28;20520;-66
2021/10/06 11:54:17;;;;;;;1.10;0.57;;;17.60;99.90;;;;;;5034297;28;20413;-67
2021/10/06 11:56:49;;;;;;;1.30;0.70;;;17.50;99.90;;;;;;5051881;28;20434;-66
2021/10/06 11:59:20;;;;;;;1.07;0.73;;;17.20;99.90;;;;;;5051989;28;20389;-67
2021/10/06 12:01:52;;;;;;;1.00;0.60;;;17.20;99.90;;;;;;5052146;28;20528;-67
2021/10/06 12:04:23;;;;;;;1.17;0.90;;;17.10;99.90;;;;;;5051920;28;20448;-66
2021/10/06 12:06:59;;;;;;;1.00;0.70;;;17.40;99.90;;;;;;5051766;28;20419;-66
2021/10/06 12:09:33;;;;;;;1.50;0.77;;;17.80;99.90;;;;;;5051847;28;20841;-66
2021/10/06 12:12:02;;;;;;;1.30;1.00;;;18.10;99.90;;;;;;5033866;28;20456;-66
2021/10/06 12:14:33;;;;;;;1.00;0.53;;;18.40;99.90;;;;;;5051576;28;20450;-66
2021/10/06 12:17:07;;;;;;;0.90;0.50;;;18.50;99.90;;;;;;5051499;28;20498;-67
2021/10/06 12:19:36;;;;;;;0.90;0.40;;;18.50;99.90;;;;;;5051742;28;20385;-67
2021/10/06 12:22:07;;;;;;;1.30;0.80;;;18.50;99.90;;;;;;5051411;28;20512;-67
2021/10/06 12:24:39;;;;;;;1.77;0.60;;;18.70;99.90;;;;;;5051392;28;20797;-67
2021/10/06 12:27:08;;;;;;;4.07;0.97;;;18.80;99.90;;;;;;5051151;28;20458;-66
2021/10/06 12:29:37;;;;;;;0.90;0.50;;;18.80;99.90;;;;;;5050767;28;20518;-66
2021/10/06 12:32:14;;;;;;;1.10;0.70;;;18.80;99.90;;;;;;5050879;28;20497;-66
2021/10/06 12:34:42;;;;;;;2.03;1.13;;;18.70;99.90;;;;;;5050818;28;20528;-66
2021/10/06 12:37:13;;;;;;;1.20;0.90;;;18.60;99.90;;;;;;5050787;28;20402;-66
2021/10/06 12:39:41;;;;;;;0.90;0.50;;;18.50;99.90;;;;;;5051069;28;20446;-67
2021/10/06 12:42:10;;;;;;;1.00;0.57;;;18.10;99.90;;;;;;5050712;28;20431;-67
2021/10/06 12:44:45;;;;;;;1.20;0.70;;;17.90;99.90;;;;;;5049800;28;20386;-67
2021/10/06 12:47:15;;;;;;;1.57;0.63;;;17.90;99.90;;;;;;5050414;28;20430;-66
2021/10/06 12:49:51;;;;;;;1.10;0.70;;;17.60;99.90;;;;;;5051486;28;20429;-68
2021/10/06 12:52:25;;;;;;;1.40;0.80;;;17.80;99.90;;;;;;5049306;28;20466;-66
2021/10/06 12:55:08;;;;;;;1.20;0.60;;;17.90;99.90;;;;;;5050717;28;20430;-68
2021/10/06 12:57:38;;;;;;;0.90;0.50;;;17.80;99.90;;;;;;5050779;28;20435;-66
2021/10/06 13:00:22;;;;;;;0.90;0.50;;;18.10;99.90;;;;;;5049946;28;20402;-67
2021/10/06 13:02:51;;;;;;;0.90;0.50;;;18.50;99.90;;;;;;5051097;28;20443;-67
2021/10/06 13:05:20;;;;;;;0.90;0.50;;;18.60;99.90;;;;;;5051128;28;20518;-67